Aeroporto :
LOGIN :

Iscrizione | Disclaimer

   EN    FR    IT 

 










Sommario :    VFR   VFR Marginale   IFR   IFR Intensivo   IFR Molto Intensivo
Visibilità : 
Base nubi : 
>= 8 km
>= 3000ft
5 / 8 km
1000 / 3000 ft
1500m / 5 km
500 / 1000 ft
800 / 1500m
200 / 500 ft
< 800m
< 200 ft
Simboli :   Temporali  Nebbia  Neve Forte  Precipitazioni Forti  Vento > 20 kt
SIGMETs :   Varie  Temporali  Ghiacco  Turbolenza  Onda orograficha  Ceneri Vulcaniche






- Altitudine del aeroporto : 348 ft
- Codice IATA : LDV


LFRJ - Landivisiau

ULTIMO METAR :
  • 240600Z AUTO 08007KT 4900 BR BKN012 BKN160 OVC220 03/02 Q1021 TEMPO BKN008

METARs OBSOLETI :
  • 240530Z AUTO 07008KT 4900 BR OVC012 03/02 Q1021 TEMPO BKN008
  • 240500Z AUTO 07010KT 4900 BR OVC010 03/02 Q1021 NOSIG
  • 240430Z AUTO 06007KT 4100 BR BKN010 BKN180 BKN230 02/02 Q1021
  • 240400Z AUTO 06007KT 4300 BR SCT008 BKN170 02/01 Q1021
  • 240330Z AUTO 09011KT 4300 BR OVC007 03/02 Q1021

TAF AMD TAF LFRJ
Valido dal 24 a 06 ore il 24 a 15 ore UTC


240611Z 2406/2415 07010KT 7000 NSC
TEMPO 2406/2408 3000 BR BKN012
BECMG 2408/2410 CAVOK



MetMap, La meteo Aeronautica in un colpo d'occhio ! - Copyright ORBIFLY Dicembre 2007 - Disclaimer

ORBIFLY MET'MAP TEAM :

Programmazione e sviluppo : Alexandra Zaïnal
Concezione : Baudouin d'Aumeries
Aiuto per la programmazione : Marc-Olivier Méhu
Supporto tecnico e logistico : Manuel Goepfert
Aiuto per la traduzione : Arnaldo La Scala

Contatto : metmap@orbifly.com




FONTI E CREDITI :

   NOAA